Barth, Mississippi
Current Conditions -  °F | °C
As of 11:53 AM on Sunday 21 Dec 2014 (Local Time) from KHBG Reporting Station
Overcast Overcast  
Wind Chill: 51°   Ceiling: 700
Heat Index: 51°   Visibility: 8mi
Dew Point: 47°   Wind: 3mph
Humidity: 86%   Direction: 10°N
Pressure: 30.11"   Gusts: NA
Location:  30.8781°N, 89.5858°W
Report Text: KHBG 211753Z AUTO 01003KT 8SM OVC007 11/08 A3011 RMK AO2 SLP197 T01060083 10106 20067 58011
Loading
Personal Weather Stations






























Interactive Weather Map New forecast layout! Learn more

10-Day Weather Forecast

Advertisements
Track Severe Weather on mobile